createdAt,value
2023-05-22T00:01:46.727Z,16.97
2023-05-22T00:04:21.587Z,16.91
2023-05-22T00:06:49.053Z,16.98
2023-05-22T00:09:15.825Z,16.99
2023-05-22T00:11:44.792Z,16.91
2023-05-22T00:14:15.524Z,16.92
2023-05-22T00:16:42.242Z,16.93
2023-05-22T00:19:15.236Z,16.88
2023-05-22T00:21:42.831Z,16.77
2023-05-22T00:24:09.776Z,16.81
2023-05-22T00:26:36.375Z,16.74
2023-05-22T00:29:03.511Z,16.77
2023-05-22T00:31:30.071Z,16.79
2023-05-22T00:33:56.613Z,16.83
2023-05-22T00:36:23.151Z,16.80
2023-05-22T00:38:49.692Z,16.83
2023-05-22T00:41:19.356Z,16.87
2023-05-22T00:43:50.880Z,16.86
2023-05-22T00:46:21.489Z,16.76
2023-05-22T00:48:48.968Z,16.76
2023-05-22T00:51:20.668Z,16.69
2023-05-22T00:53:50.974Z,16.63
2023-05-22T00:56:18.639Z,16.65
2023-05-22T00:58:45.825Z,16.63
2023-05-22T01:01:13.015Z,16.59
2023-05-22T01:03:45.268Z,16.66
2023-05-22T01:06:14.123Z,16.59
2023-05-22T01:08:41.433Z,16.63
2023-05-22T01:11:15.316Z,16.58
2023-05-22T01:14:13.842Z,16.63
2023-05-22T01:16:47.637Z,16.67
2023-05-22T01:20:02.070Z,16.69
2023-05-22T01:23:04.476Z,16.67
2023-05-22T01:25:49.503Z,16.67
2023-05-22T01:28:25.042Z,16.69
2023-05-22T01:31:01.848Z,16.70
2023-05-22T01:33:33.423Z,16.66
2023-05-22T01:36:02.565Z,16.66
2023-05-22T01:38:30.531Z,16.59
2023-05-22T01:40:58.214Z,16.56
2023-05-22T01:43:24.846Z,16.42
2023-05-22T01:45:51.523Z,16.42
2023-05-22T01:48:20.196Z,16.32
2023-05-22T01:50:51.428Z,16.24
2023-05-22T01:53:23.140Z,16.19
2023-05-22T01:56:06.424Z,16.28
2023-05-22T01:59:02.423Z,16.23
2023-05-22T02:01:32.521Z,16.24
2023-05-22T02:04:01.756Z,16.14
2023-05-22T02:06:32.359Z,16.16
2023-05-22T02:09:01.231Z,16.00
2023-05-22T02:11:31.132Z,15.90
2023-05-22T02:13:57.835Z,15.81
2023-05-22T02:16:24.560Z,15.77
2023-05-22T02:18:58.894Z,15.93
2023-05-22T02:21:25.429Z,15.90
2023-05-22T02:23:52.004Z,15.86
2023-05-22T02:26:18.462Z,15.95
2023-05-22T02:28:45.001Z,15.85
2023-05-22T02:31:11.539Z,15.79
2023-05-22T02:33:38.033Z,15.82
2023-05-22T02:36:04.753Z,15.88
2023-05-22T02:38:31.269Z,15.72
2023-05-22T02:40:57.753Z,15.70
2023-05-22T02:43:24.244Z,15.63
2023-05-22T02:45:52.933Z,15.62
2023-05-22T02:48:19.712Z,15.49
2023-05-22T02:50:48.693Z,15.50
2023-05-22T02:53:15.697Z,15.58
2023-05-22T02:55:42.264Z,15.60
2023-05-22T02:58:12.159Z,15.75
2023-05-22T03:00:39.092Z,15.74
2023-05-22T03:03:07.033Z,15.82
2023-05-22T03:05:33.696Z,15.88
2023-05-22T03:08:00.370Z,15.91
2023-05-22T03:10:27.147Z,15.92
2023-05-22T03:12:56.727Z,15.94
2023-05-22T03:15:26.238Z,16.02
2023-05-22T03:17:54.790Z,16.07
2023-05-22T03:20:21.429Z,16.11
2023-05-22T03:22:47.926Z,16.15
2023-05-22T03:25:14.459Z,16.12
2023-05-22T03:27:41.228Z,16.11
2023-05-22T03:30:08.378Z,16.21
2023-05-22T03:32:37.722Z,16.33
2023-05-22T03:35:05.516Z,16.36
2023-05-22T03:37:32.029Z,16.34
2023-05-22T03:39:58.573Z,16.40
2023-05-22T03:42:28.084Z,16.32
2023-05-22T03:44:58.852Z,16.16
2023-05-22T03:47:27.826Z,16.07
2023-05-22T03:49:56.401Z,15.99
2023-05-22T03:52:23.118Z,15.96
2023-05-22T03:54:49.706Z,16.06
2023-05-22T03:57:16.522Z,16.08
2023-05-22T03:59:42.993Z,16.02
2023-05-22T04:02:13.148Z,16.15
2023-05-22T04:04:39.878Z,16.15
2023-05-22T04:07:08.274Z,16.17
2023-05-22T04:09:36.092Z,16.19
2023-05-22T04:12:03.555Z,16.13
2023-05-22T04:14:30.033Z,16.20
2023-05-22T04:16:58.220Z,16.13
2023-05-22T04:19:24.832Z,16.11
2023-05-22T04:21:51.496Z,16.13
2023-05-22T04:24:18.409Z,16.06
2023-05-22T04:26:44.962Z,15.99
2023-05-22T04:29:14.282Z,15.95
2023-05-22T04:31:41.048Z,15.79
2023-05-22T04:34:07.739Z,15.70
2023-05-22T04:36:35.907Z,15.80
2023-05-22T04:39:04.984Z,15.83
2023-05-22T04:41:32.462Z,15.86
2023-05-22T04:44:00.412Z,15.96
2023-05-22T04:46:29.732Z,16.14
2023-05-22T04:48:56.268Z,16.08
2023-05-22T04:51:23.350Z,15.93
2023-05-22T04:53:52.034Z,15.90
2023-05-22T04:56:31.995Z,15.92
2023-05-22T04:59:04.759Z,16.41
2023-05-22T05:01:33.300Z,16.28
2023-05-22T05:04:00.698Z,16.08
2023-05-22T05:06:28.194Z,15.67
2023-05-22T05:08:55.028Z,15.26
2023-05-22T05:11:21.666Z,14.91
2023-05-22T05:13:51.496Z,14.69
2023-05-22T05:16:19.055Z,14.72
2023-05-22T05:18:45.627Z,14.78
2023-05-22T05:21:12.134Z,14.84
2023-05-22T05:23:38.648Z,15.05
2023-05-22T05:26:05.172Z,15.15
2023-05-22T05:28:31.717Z,15.11
2023-05-22T05:31:01.745Z,15.12
2023-05-22T05:33:31.408Z,15.13
2023-05-22T05:36:01.372Z,14.94
2023-05-22T05:38:31.065Z,14.79
2023-05-22T05:41:01.340Z,14.81
2023-05-22T05:43:31.575Z,15.05
2023-05-22T05:46:01.854Z,15.11
2023-05-22T05:48:31.816Z,15.04
2023-05-22T05:51:01.472Z,14.95
2023-05-22T05:53:29.706Z,15.00
2023-05-22T05:55:56.326Z,14.97
2023-05-22T05:58:22.883Z,15.02
2023-05-22T06:00:49.570Z,14.99
2023-05-22T06:03:17.830Z,14.91
2023-05-22T06:05:45.925Z,14.85
2023-05-22T06:08:13.670Z,14.79
2023-05-22T06:10:40.424Z,14.82
2023-05-22T06:13:09.680Z,14.79
2023-05-22T06:15:38.324Z,14.86
2023-05-22T06:18:05.305Z,15.01
2023-05-22T06:20:32.157Z,15.06
2023-05-22T06:22:59.674Z,15.14
2023-05-22T06:25:29.978Z,15.43
2023-05-22T06:28:00.704Z,15.51
2023-05-22T06:30:39.681Z,15.53
2023-05-22T06:33:07.615Z,15.35
2023-05-22T06:35:34.303Z,15.48
2023-05-22T06:38:00.932Z,15.51
2023-05-22T06:40:31.399Z,15.28
2023-05-22T06:43:01.548Z,14.97
2023-05-22T06:45:31.217Z,15.06
2023-05-22T06:48:01.116Z,14.98
2023-05-22T06:50:31.103Z,15.09
2023-05-22T06:53:01.078Z,15.00
2023-05-22T06:55:30.370Z,14.83
2023-05-22T06:58:00.450Z,14.88
2023-05-22T07:00:29.653Z,14.90
2023-05-22T07:02:56.376Z,15.09
2023-05-22T07:05:23.354Z,15.34
2023-05-22T07:07:49.934Z,15.36
2023-05-22T07:10:16.503Z,15.43
2023-05-22T07:12:43.031Z,15.29
2023-05-22T07:15:12.208Z,15.36
2023-05-22T07:17:41.746Z,15.51
2023-05-22T07:20:10.063Z,15.67
2023-05-22T07:22:36.824Z,15.78
2023-05-22T07:25:06.586Z,15.82
2023-05-22T07:27:33.143Z,15.99
2023-05-22T07:30:00.002Z,15.99
2023-05-22T07:32:26.568Z,16.10
2023-05-22T07:34:53.298Z,16.28
2023-05-22T07:37:19.813Z,16.39
2023-05-22T07:39:49.892Z,16.44
2023-05-22T07:42:16.417Z,16.43
2023-05-22T07:44:42.965Z,16.40
2023-05-22T07:47:09.658Z,16.48
2023-05-22T07:49:36.304Z,16.50
2023-05-22T07:52:02.996Z,16.58
2023-05-22T07:54:32.527Z,16.53
2023-05-22T07:57:03.473Z,16.64
2023-05-22T07:59:30.125Z,16.64
2023-05-22T08:01:58.493Z,16.80
2023-05-22T08:04:26.057Z,16.95
2023-05-22T08:06:52.991Z,17.04
2023-05-22T08:09:21.555Z,17.07
2023-05-22T08:11:48.562Z,17.24
2023-05-22T08:14:15.344Z,17.33
2023-05-22T08:16:41.987Z,17.38
2023-05-22T08:19:09.105Z,17.42
2023-05-22T08:21:35.951Z,17.48
2023-05-22T08:24:05.273Z,17.64
2023-05-22T08:26:33.866Z,17.82
2023-05-22T08:29:00.866Z,17.91
2023-05-22T08:31:29.680Z,17.95
2023-05-22T08:34:02.254Z,18.17
2023-05-22T08:36:33.893Z,18.43
2023-05-22T08:39:01.352Z,18.50
2023-05-22T08:41:29.894Z,18.60
2023-05-22T08:43:59.070Z,18.80
2023-05-22T08:46:31.739Z,19.01
2023-05-22T08:49:02.121Z,19.41
2023-05-22T08:51:37.708Z,19.68
2023-05-22T08:54:06.741Z,19.90
2023-05-22T08:56:37.339Z,19.87
2023-05-22T08:59:07.182Z,19.82
2023-05-22T09:01:33.773Z,19.71
2023-05-22T09:04:02.127Z,19.65
2023-05-22T09:06:32.816Z,19.81
2023-05-22T09:08:59.909Z,20.09
2023-05-22T09:11:31.322Z,20.74
2023-05-22T09:14:08.767Z,21.42
2023-05-22T09:16:46.025Z,21.65
2023-05-22T09:19:14.791Z,21.82
2023-05-22T09:21:41.800Z,21.85
2023-05-22T09:24:12.143Z,22.27
2023-05-22T09:26:39.680Z,22.36
2023-05-22T09:29:07.561Z,22.57
2023-05-22T09:31:41.778Z,22.61
2023-05-22T09:34:10.311Z,22.54
2023-05-22T09:36:36.864Z,22.66
2023-05-22T09:39:04.666Z,22.62
2023-05-22T09:44:02.452Z,22.73
2023-05-22T09:46:31.567Z,22.96
2023-05-22T09:49:01.624Z,23.54
2023-05-22T09:51:31.310Z,24.03
2023-05-22T09:54:03.665Z,24.30
2023-05-22T09:56:40.165Z,24.48
2023-05-22T09:59:09.513Z,24.01
2023-05-22T10:01:38.692Z,24.04
2023-05-22T10:04:06.622Z,24.24
2023-05-22T10:06:34.646Z,24.81
2023-05-22T10:09:10.131Z,25.50
2023-05-22T10:11:37.681Z,25.95
2023-05-22T10:14:05.160Z,26.58
2023-05-22T10:16:34.024Z,27.11
2023-05-22T10:19:01.084Z,27.29
2023-05-22T10:21:30.149Z,27.24
2023-05-22T10:24:00.735Z,27.01
2023-05-22T10:26:31.703Z,27.38
2023-05-22T10:29:10.505Z,27.30
2023-05-22T10:31:44.363Z,27.47
2023-05-22T10:34:17.962Z,26.53
2023-05-22T10:37:16.565Z,27.05
2023-05-22T10:40:00.914Z,27.47
2023-05-22T10:42:34.143Z,27.93
2023-05-22T10:45:01.164Z,28.48
2023-05-22T10:47:33.734Z,29.05
2023-05-22T10:50:07.247Z,29.39
2023-05-22T10:52:34.959Z,29.66
2023-05-22T10:55:05.958Z,29.81
2023-05-22T10:57:34.602Z,29.81
2023-05-22T11:00:11.636Z,30.03
2023-05-22T11:02:47.525Z,29.85
2023-05-22T11:05:19.959Z,29.75
2023-05-22T11:07:46.605Z,29.66
2023-05-22T11:10:13.232Z,29.89
2023-05-22T11:12:41.644Z,30.21
2023-05-22T11:15:10.420Z,30.34
2023-05-22T11:17:40.261Z,30.52
2023-05-22T11:20:12.852Z,30.36
2023-05-22T11:22:44.230Z,30.39
2023-05-22T11:25:16.917Z,30.36
2023-05-22T11:27:45.026Z,30.12
2023-05-22T11:30:12.898Z,30.07
2023-05-22T11:32:45.043Z,30.31
2023-05-22T11:35:19.135Z,30.38
2023-05-22T11:37:46.749Z,30.60
2023-05-22T11:40:16.430Z,30.35
2023-05-22T11:42:43.487Z,29.92
2023-05-22T11:45:11.025Z,30.06
2023-05-22T11:47:38.757Z,29.35
2023-05-22T11:50:09.109Z,29.46
2023-05-22T11:52:38.163Z,29.79
2023-05-22T11:55:05.656Z,30.11
2023-05-22T11:57:35.737Z,30.33
2023-05-22T12:00:06.669Z,30.44
2023-05-22T12:02:33.423Z,30.55
2023-05-22T12:05:25.951Z,30.81
2023-05-22T12:08:20.158Z,31.29
2023-05-22T12:10:50.330Z,31.42
2023-05-22T12:13:32.684Z,31.61
2023-05-22T12:16:02.599Z,30.88
2023-05-22T12:18:41.762Z,30.39
2023-05-22T12:21:09.080Z,29.57
2023-05-22T12:23:35.906Z,29.58
2023-05-22T12:26:04.749Z,29.82
2023-05-22T12:28:33.005Z,29.91
2023-05-22T12:31:02.605Z,30.33
2023-05-22T12:33:33.461Z,30.64
2023-05-22T12:36:00.690Z,30.72
2023-05-22T12:38:33.406Z,30.53
2023-05-22T12:41:04.586Z,30.58
2023-05-22T12:43:34.304Z,30.82
2023-05-22T12:46:04.535Z,30.79
2023-05-22T12:48:34.112Z,30.96
2023-05-22T12:51:01.258Z,30.85
2023-05-22T12:53:27.819Z,31.12
2023-05-22T12:55:54.336Z,30.70
2023-05-22T12:58:20.905Z,30.15
2023-05-22T13:00:47.477Z,30.11
2023-05-22T13:03:14.100Z,30.43
2023-05-22T13:05:41.622Z,30.94
2023-05-22T13:08:08.702Z,31.23
2023-05-22T13:10:35.892Z,31.18
2023-05-22T13:13:02.942Z,31.10
2023-05-22T13:15:29.640Z,31.40
2023-05-22T13:17:57.026Z,30.74
2023-05-22T13:20:23.743Z,30.79
2023-05-22T13:22:50.413Z,30.20
2023-05-22T13:25:19.069Z,30.28
2023-05-22T13:27:46.276Z,30.61
2023-05-22T13:30:13.070Z,31.06
2023-05-22T13:32:39.709Z,31.55
2023-05-22T13:35:06.667Z,31.67
2023-05-22T13:37:33.325Z,31.73
2023-05-22T13:40:00.137Z,32.15
2023-05-22T13:42:27.097Z,31.99
2023-05-22T13:44:54.123Z,31.96
2023-05-22T13:47:23.013Z,31.47
2023-05-22T13:49:50.009Z,31.66
2023-05-22T13:52:16.639Z,32.04
2023-05-22T13:54:43.517Z,32.35
2023-05-22T13:57:10.100Z,31.99
2023-05-22T13:59:36.627Z,31.70
2023-05-22T14:02:03.587Z,31.01
2023-05-22T14:04:30.550Z,30.74
2023-05-22T14:06:57.351Z,30.73
2023-05-22T14:09:23.896Z,31.23
2023-05-22T14:11:50.602Z,31.45
2023-05-22T14:14:23.592Z,31.67
2023-05-22T14:16:53.387Z,31.42
2023-05-22T14:19:20.854Z,30.95
2023-05-22T14:21:49.763Z,30.79
2023-05-22T14:24:16.404Z,31.23
2023-05-22T14:26:43.016Z,31.45
2023-05-22T14:29:09.692Z,31.66
2023-05-22T14:31:51.875Z,31.69
2023-05-22T14:34:18.748Z,31.80
2023-05-22T14:36:45.361Z,31.54
2023-05-22T14:39:11.903Z,31.01
2023-05-22T14:41:38.479Z,30.53
2023-05-22T14:44:05.088Z,30.52
2023-05-22T14:46:35.563Z,30.17
2023-05-22T14:49:05.147Z,30.57
2023-05-22T14:51:32.884Z,30.51
2023-05-22T14:53:59.713Z,30.45
2023-05-22T14:56:26.638Z,30.31
2023-05-22T14:58:53.395Z,30.31
2023-05-22T15:01:20.559Z,30.53
2023-05-22T15:03:47.422Z,30.82
2023-05-22T15:06:14.079Z,30.70
2023-05-22T15:08:40.802Z,30.47
2023-05-22T15:11:07.356Z,30.64
2023-05-22T15:13:33.970Z,30.82
2023-05-22T15:16:00.670Z,30.65
2023-05-22T15:18:27.485Z,30.66
2023-05-22T15:20:54.233Z,30.62
2023-05-22T15:23:25.182Z,30.30
2023-05-22T15:25:53.390Z,29.52
2023-05-22T15:28:20.475Z,28.63
2023-05-22T15:30:47.094Z,28.38
2023-05-22T15:33:13.744Z,28.50
2023-05-22T15:35:42.013Z,28.17
2023-05-22T15:38:12.506Z,27.55
2023-05-22T15:40:40.690Z,26.80
2023-05-22T15:43:07.939Z,26.48
2023-05-22T15:45:36.615Z,26.82
2023-05-22T15:48:06.867Z,27.24
2023-05-22T15:50:36.352Z,27.78
2023-05-22T15:53:05.873Z,28.06
2023-05-22T15:55:35.580Z,28.20
2023-05-22T15:58:07.909Z,28.26
2023-05-22T16:00:45.779Z,28.24
2023-05-22T16:03:12.437Z,27.94
2023-05-22T16:05:40.242Z,28.02
2023-05-22T16:08:09.937Z,27.78
2023-05-22T16:10:36.681Z,27.51
2023-05-22T16:13:06.311Z,27.63
2023-05-22T16:15:37.598Z,27.58
2023-05-22T16:18:07.979Z,27.05
2023-05-22T16:20:35.969Z,26.80
2023-05-22T16:23:05.524Z,26.89
2023-05-22T16:25:35.110Z,26.90
2023-05-22T16:28:05.710Z,26.77
2023-05-22T16:30:38.075Z,26.88
2023-05-22T16:33:04.911Z,27.08
2023-05-22T16:35:32.168Z,27.11
2023-05-22T16:37:59.036Z,27.23
2023-05-22T16:40:25.797Z,27.36
2023-05-22T16:43:36.687Z,27.37
2023-05-22T16:46:06.319Z,27.29
2023-05-22T16:48:36.128Z,27.03
2023-05-22T16:51:03.435Z,27.00
2023-05-22T16:53:30.132Z,26.85
2023-05-22T16:55:56.825Z,26.55
2023-05-22T16:58:39.087Z,26.43
2023-05-22T17:01:08.807Z,26.42
2023-05-22T17:03:35.736Z,26.45
2023-05-22T17:06:44.115Z,26.12
2023-05-22T17:09:03.673Z,25.82
2023-05-22T17:11:42.213Z,25.45
2023-05-22T17:14:09.199Z,25.30
2023-05-22T17:16:38.506Z,25.40
2023-05-22T17:19:08.864Z,25.50
2023-05-22T17:21:36.995Z,25.70
2023-05-22T17:24:12.052Z,25.43
2023-05-22T17:26:40.949Z,25.40
2023-05-22T17:29:07.831Z,25.04
2023-05-22T17:31:39.524Z,24.78
2023-05-22T17:34:09.263Z,24.65
2023-05-22T17:36:36.188Z,24.53
2023-05-22T17:39:05.889Z,24.45
2023-05-22T17:41:37.539Z,24.33
2023-05-22T17:44:07.166Z,24.33
2023-05-22T17:46:37.041Z,24.21
2023-05-22T17:49:12.768Z,24.03
2023-05-22T17:51:39.462Z,23.79
2023-05-22T17:54:08.141Z,23.72
2023-05-22T17:56:36.539Z,23.72
2023-05-22T17:59:07.658Z,23.71
2023-05-22T18:01:36.922Z,23.72
2023-05-22T18:04:05.030Z,23.50
2023-05-22T18:06:34.885Z,23.30
2023-05-22T18:09:04.476Z,23.04
2023-05-22T18:11:33.424Z,23.09
2023-05-22T18:14:00.126Z,22.92
2023-05-22T18:16:26.866Z,22.91
2023-05-22T18:18:53.689Z,22.63
2023-05-22T18:21:20.413Z,22.63
2023-05-22T18:26:39.739Z,22.50
2023-05-22T18:29:06.677Z,22.49
2023-05-22T18:31:36.881Z,22.50
2023-05-22T18:34:06.741Z,22.25
2023-05-22T18:36:38.961Z,22.19
2023-05-22T18:39:07.403Z,22.24
2023-05-22T18:41:37.479Z,22.22
2023-05-22T18:44:07.871Z,22.14
2023-05-22T18:46:37.866Z,22.09
2023-05-22T18:49:07.651Z,22.00
2023-05-22T18:51:37.191Z,21.81
2023-05-22T18:54:06.091Z,21.70
2023-05-22T18:56:32.712Z,21.58
2023-05-22T18:58:59.315Z,21.54
2023-05-22T19:01:26.044Z,21.34
2023-05-22T19:03:52.701Z,21.20
2023-05-22T19:06:19.829Z,21.14
2023-05-22T19:08:46.386Z,21.10
2023-05-22T19:11:13.029Z,21.03
2023-05-22T19:13:41.218Z,20.89
2023-05-22T19:16:07.734Z,20.83
2023-05-22T19:18:36.941Z,20.74
2023-05-22T19:21:03.610Z,20.64
2023-05-22T19:23:30.238Z,20.43
2023-05-22T19:25:58.309Z,20.40
2023-05-22T19:28:25.926Z,20.21
2023-05-22T19:30:53.145Z,20.24
2023-05-22T19:33:21.301Z,20.15
2023-05-22T19:35:47.862Z,20.01
2023-05-22T19:38:14.469Z,19.80
2023-05-22T19:40:41.315Z,19.79
2023-05-22T19:43:08.135Z,19.49
2023-05-22T19:45:36.805Z,19.29
2023-05-22T19:48:03.704Z,19.13
2023-05-22T19:50:30.403Z,18.92
2023-05-22T19:52:57.111Z,18.89
2023-05-22T19:55:23.721Z,18.99
2023-05-22T19:57:50.637Z,18.86
2023-05-22T20:00:17.590Z,18.99
2023-05-22T20:02:44.235Z,18.87
2023-05-22T20:05:13.236Z,18.89
2023-05-22T20:07:41.864Z,18.92
2023-05-22T20:10:10.235Z,18.85
2023-05-22T20:12:39.612Z,18.79
2023-05-22T20:15:16.731Z,18.87
2023-05-22T20:17:48.038Z,18.71
2023-05-22T20:20:14.732Z,18.77
2023-05-22T20:22:41.379Z,18.84
2023-05-22T20:25:08.808Z,18.82
2023-05-22T20:27:39.082Z,18.91
2023-05-22T20:30:11.472Z,18.86
2023-05-22T20:32:39.399Z,18.79
2023-05-22T20:35:09.876Z,18.77
2023-05-22T20:37:38.461Z,18.70
2023-05-22T20:40:08.702Z,18.65
2023-05-22T20:42:39.446Z,18.69
2023-05-22T20:45:12.890Z,18.75
2023-05-22T20:47:41.006Z,18.88
2023-05-22T20:50:11.422Z,18.93
2023-05-22T20:52:41.150Z,19.04
2023-05-22T20:55:10.884Z,19.17
2023-05-22T20:57:41.057Z,19.24
2023-05-22T21:00:11.334Z,19.27
2023-05-22T21:02:41.208Z,19.31
2023-05-22T21:05:11.182Z,19.32
2023-05-22T21:07:40.893Z,19.43
2023-05-22T21:10:08.981Z,19.38
2023-05-22T21:12:35.601Z,19.38
2023-05-22T21:15:02.313Z,19.32
2023-05-22T21:17:29.000Z,19.39
2023-05-22T21:19:55.818Z,19.50
2023-05-22T21:22:22.377Z,19.42
2023-05-22T21:24:49.106Z,19.54
2023-05-22T21:27:16.781Z,19.45
2023-05-22T21:29:43.314Z,19.60
2023-05-22T21:32:09.878Z,19.54
2023-05-22T21:34:40.131Z,19.42
2023-05-22T21:37:11.046Z,19.52
2023-05-22T21:39:40.675Z,19.49
2023-05-22T21:42:10.594Z,19.54
2023-05-22T21:44:41.572Z,19.54
2023-05-22T21:47:10.536Z,19.59
2023-05-22T21:49:39.999Z,19.48
2023-05-22T21:52:06.753Z,19.53
2023-05-22T21:54:33.281Z,19.47
2023-05-22T21:56:59.967Z,19.40
2023-05-22T21:59:26.561Z,19.32
2023-05-22T22:01:53.159Z,19.25
2023-05-22T22:04:19.695Z,19.11
2023-05-22T22:06:46.362Z,19.06
2023-05-22T22:09:12.958Z,18.95
2023-05-22T22:11:41.169Z,18.86
2023-05-22T22:14:07.842Z,18.80
2023-05-22T22:16:35.452Z,18.61
2023-05-22T22:19:02.749Z,18.57
2023-05-22T22:21:29.716Z,18.53
2023-05-22T22:23:56.291Z,18.56
2023-05-22T22:26:22.882Z,18.48
2023-05-22T22:28:49.432Z,18.48
2023-05-22T22:31:16.094Z,18.52
2023-05-22T22:33:42.758Z,18.32
2023-05-22T22:36:09.377Z,18.17
2023-05-22T22:38:36.003Z,18.33
2023-05-22T22:41:04.805Z,18.22
2023-05-22T22:43:31.533Z,18.23
2023-05-22T22:45:58.105Z,18.19
2023-05-22T22:48:24.835Z,18.19
2023-05-22T22:50:52.528Z,18.18
2023-05-22T22:53:19.677Z,18.21
2023-05-22T22:55:47.897Z,18.29
2023-05-22T22:58:14.612Z,18.28
2023-05-22T23:00:43.813Z,18.13
2023-05-22T23:03:13.640Z,18.06
2023-05-22T23:05:40.822Z,18.13
2023-05-22T23:08:07.630Z,18.06
2023-05-22T23:10:34.161Z,18.02
2023-05-22T23:13:00.930Z,18.10
2023-05-22T23:15:27.923Z,18.11
2023-05-22T23:17:54.574Z,18.08
2023-05-22T23:20:21.307Z,18.13
2023-05-22T23:22:47.937Z,18.10
2023-05-22T23:25:17.235Z,18.14
2023-05-22T23:27:46.939Z,18.19
2023-05-22T23:30:17.296Z,18.18
2023-05-22T23:32:47.667Z,18.17
2023-05-22T23:35:17.299Z,18.21
2023-05-22T23:37:46.011Z,18.23
2023-05-22T23:40:13.033Z,18.38
2023-05-22T23:42:39.620Z,18.29
2023-05-22T23:45:06.678Z,18.43
2023-05-22T23:47:33.293Z,18.39
2023-05-22T23:50:00.259Z,18.37
2023-05-22T23:52:27.166Z,18.35
2023-05-22T23:54:53.960Z,18.28
2023-05-22T23:57:20.716Z,18.24
2023-05-22T23:59:47.553Z,18.28
